Hauptseite
METAR-TAF:

METAR-TAF

Flughäfen :

Flughafen Chongqing-Jiangbei

Chongqing, China

Breite: 29-31N, Länge: 106-29E, Höhe: 351 m

Beobachtung

Neuester Wetterbericht von vor 50 Minuten, um 07:00 UTC
Wind 4 kt aus Nordost
Temperatur 22°C
Luftfeuchtigkeit 88%
Luftdruck 1017 hPa
Sichtweite 10 km oder mehr
Leicht bewölkt in der Höhe von 1500 ft
Aufgelockert bewölkt in der Höhe von 4000 ft
Leichtregen

METAR: ZUCK 220700Z 04002MPS 9999 -RA FEW015 SCT040 22/20 Q1017 NOSIG

Zeit: 15:50 (07:50 UTC)

Prognose

Neuester Wetterbericht von vor 4 Stunden und 48 Minuten, um 03:02 UTC
Gültige Prognose vom 22 um 06 UTC bis 23 um 06 UTC
Wind 6 kt aus Nord/Nordost
Sichtweite: 5000 m
Aufgelockert bewölkt in der Höhe von 4000 ft
feuchter Dunst
Zeitweise
vom 22 um 22 UTC bis 23 um 02 UTC
Sichtweite: 3500 m
Leichtregen, feuchter Dunst

TAF: ZUCK 220302Z 2206/2306 03003MPS 5000 BR SCT040 TX23/2208Z TN19/2221Z TEMPO 2222/2302 3500 -RA BR

Wetterbeobachtungen und Prognosen von mehr als 4000 Flughäfen (METAR und TAF Bericht).

Die verfügbaren Stationen werden durch gelbe und rote Markierungen auf der Karte dargestellt.

Führen Sie die Maus auf sie, um den Namen der Station zu sehen.

Darauf klicken, um die Beobachtung von Wetterbeobachtungen und Prognosen zu sehen.

Um die Karte zu ändern : klicken Sie auf den grünen Tasten mit einem schwarzen Kreuz Zum Vergrößern, auf den grünen Button mit einem Gedankenstrich zu verkleinern, oder auf die grünen Pfeile für benachbarte Karten.


METAR-TAF: